createdAt,value
2022-07-26T00:00:58.707Z,96912.53
2022-07-26T00:03:26.279Z,96913.56
2022-07-26T00:05:53.762Z,96920.38
2022-07-26T00:08:21.238Z,96917.13
2022-07-26T00:10:50.691Z,96921.22
2022-07-26T00:13:20.535Z,96917.50
2022-07-26T00:15:49.479Z,96925.31
2022-07-26T00:18:18.475Z,96917.25
2022-07-26T00:20:46.148Z,96925.41
2022-07-26T00:23:14.503Z,96927.03
2022-07-26T00:25:42.590Z,96938.94
2022-07-26T00:28:10.077Z,96925.84
2022-07-26T00:30:39.294Z,96937.19
2022-07-26T00:33:09.802Z,96944.84
2022-07-26T00:35:37.292Z,96937.94
2022-07-26T00:38:05.221Z,96931.91
2022-07-26T00:40:32.941Z,96938.69
2022-07-26T00:43:00.427Z,96934.56
2022-07-26T00:45:28.657Z,96931.00
2022-07-26T00:47:56.181Z,96933.47
2022-07-26T00:50:23.805Z,96932.19
2022-07-26T00:52:51.568Z,96934.94
2022-07-26T00:55:19.506Z,96939.22
2022-07-26T00:57:47.440Z,96938.00
2022-07-26T01:00:22.655Z,96939.59
2022-07-26T01:02:50.541Z,96923.34
2022-07-26T01:05:18.193Z,96931.16
2022-07-26T01:07:47.241Z,96934.72
2022-07-26T01:10:15.000Z,96927.19
2022-07-26T01:12:43.123Z,96930.00
2022-07-26T01:15:13.230Z,96936.81
2022-07-26T01:17:40.825Z,96931.03
2022-07-26T01:20:10.678Z,96930.38
2022-07-26T01:22:39.127Z,96927.88
2022-07-26T01:25:07.915Z,96930.69
2022-07-26T01:27:39.733Z,96930.97
2022-07-26T01:30:10.783Z,96937.06
2022-07-26T01:32:38.765Z,96936.78
2022-07-26T01:35:08.228Z,96946.16
2022-07-26T01:37:35.906Z,96934.84
2022-07-26T01:40:04.714Z,96939.47
2022-07-26T01:42:34.642Z,96934.72
2022-07-26T01:45:02.601Z,96937.50
2022-07-26T01:47:30.645Z,96931.03
2022-07-26T01:49:58.064Z,96917.72
2022-07-26T01:52:27.897Z,96924.34
2022-07-26T01:54:55.377Z,96914.56
2022-07-26T01:57:22.871Z,96913.09
2022-07-26T01:59:50.405Z,96912.59
2022-07-26T02:02:18.008Z,96922.25
2022-07-26T02:05:01.427Z,96922.25
2022-07-26T02:07:32.645Z,96935.19
2022-07-26T02:10:00.831Z,96936.44
2022-07-26T02:12:28.196Z,96923.59
2022-07-26T02:14:55.716Z,96924.66
2022-07-26T02:17:23.370Z,96923.66
2022-07-26T02:19:51.016Z,96928.97
2022-07-26T02:22:20.285Z,96928.00
2022-07-26T02:24:48.937Z,96934.06
2022-07-26T02:27:17.195Z,96921.47
2022-07-26T02:29:44.637Z,96909.34
2022-07-26T02:32:12.135Z,96916.41
2022-07-26T02:34:39.552Z,96913.63
2022-07-26T02:37:07.139Z,96911.63
2022-07-26T02:39:34.556Z,96917.41
2022-07-26T02:42:02.846Z,96924.00
2022-07-26T02:44:30.895Z,96926.00
2022-07-26T02:46:58.385Z,96922.41
2022-07-26T02:49:25.849Z,96923.41
2022-07-26T02:51:53.283Z,96907.47
2022-07-26T02:54:20.673Z,96917.53
2022-07-26T02:56:48.188Z,96915.91
2022-07-26T02:59:15.534Z,96913.31
2022-07-26T03:01:43.050Z,96915.69
2022-07-26T03:04:11.058Z,96909.84
2022-07-26T03:06:38.735Z,96906.25
2022-07-26T03:09:06.189Z,96902.88
2022-07-26T03:11:33.655Z,96916.34
2022-07-26T03:14:01.089Z,96923.94
2022-07-26T03:16:30.040Z,96912.19
2022-07-26T03:18:58.629Z,96919.28
2022-07-26T03:21:26.145Z,96916.25
2022-07-26T03:23:53.872Z,96922.25
2022-07-26T03:26:21.479Z,96933.25
2022-07-26T03:28:48.934Z,96920.91
2022-07-26T03:31:16.488Z,96920.28
2022-07-26T03:33:43.916Z,96923.78
2022-07-26T03:36:13.481Z,96920.94
2022-07-26T03:38:43.226Z,96920.13
2022-07-26T03:41:13.556Z,96913.72
2022-07-26T03:43:41.620Z,96914.53
2022-07-26T03:46:09.242Z,96918.34
2022-07-26T03:48:36.910Z,96921.84
2022-07-26T03:51:04.396Z,96934.81
2022-07-26T03:53:31.953Z,96939.38
2022-07-26T03:56:18.097Z,96927.31
2022-07-26T03:58:45.637Z,96917.88
2022-07-26T04:01:13.068Z,96912.31
2022-07-26T04:03:43.294Z,96901.50
2022-07-26T04:06:15.318Z,96913.69
2022-07-26T04:08:43.397Z,96911.09
2022-07-26T04:11:11.176Z,96906.06
2022-07-26T04:13:38.786Z,96902.38
2022-07-26T04:16:06.869Z,96909.66
2022-07-26T04:18:34.931Z,96910.25
2022-07-26T04:21:02.338Z,96910.00
2022-07-26T04:23:29.834Z,96901.22
2022-07-26T04:25:57.236Z,96905.13
2022-07-26T04:28:28.952Z,96903.66
2022-07-26T04:30:57.891Z,96905.63
2022-07-26T04:33:26.093Z,96919.94
2022-07-26T04:35:53.901Z,96913.16
2022-07-26T04:38:21.427Z,96907.84
2022-07-26T04:40:50.329Z,96906.47
2022-07-26T04:43:19.730Z,96905.78
2022-07-26T04:45:47.914Z,96903.31
2022-07-26T04:48:16.184Z,96902.81
2022-07-26T04:50:44.025Z,96899.66
2022-07-26T04:53:11.667Z,96906.34
2022-07-26T04:55:39.633Z,96915.69
2022-07-26T04:58:07.504Z,96912.84
2022-07-26T05:00:56.475Z,96908.31
2022-07-26T05:03:25.375Z,96899.81
2022-07-26T05:05:53.172Z,96904.16
2022-07-26T05:08:20.799Z,96893.16
2022-07-26T05:10:54.629Z,96905.28
2022-07-26T05:13:30.569Z,96904.59
2022-07-26T05:16:00.012Z,96910.06
2022-07-26T05:18:29.977Z,96906.94
2022-07-26T05:20:59.682Z,96901.66
2022-07-26T05:23:27.157Z,96897.97
2022-07-26T05:25:55.595Z,96898.41
2022-07-26T05:28:23.049Z,96911.09
2022-07-26T05:30:50.812Z,96914.97
2022-07-26T05:33:18.708Z,96901.66
2022-07-26T05:35:46.174Z,96901.19
2022-07-26T05:38:13.733Z,96904.94
2022-07-26T05:40:41.207Z,96903.47
2022-07-26T05:43:08.658Z,96897.91
2022-07-26T05:45:36.194Z,96897.13
2022-07-26T05:48:03.767Z,96900.47
2022-07-26T05:50:31.222Z,96890.34
2022-07-26T05:52:58.672Z,96903.25
2022-07-26T05:55:26.781Z,96899.31
2022-07-26T05:57:54.368Z,96890.53
2022-07-26T06:00:21.887Z,96891.66
2022-07-26T06:02:49.412Z,96889.31
2022-07-26T06:05:17.003Z,96894.34
2022-07-26T06:07:44.783Z,96883.00
2022-07-26T06:10:12.612Z,96877.94
2022-07-26T06:12:40.089Z,96881.81
2022-07-26T06:15:15.353Z,96873.59
2022-07-26T06:17:43.828Z,96881.09
2022-07-26T06:20:11.787Z,96889.22
2022-07-26T06:22:39.242Z,96883.00
2022-07-26T06:25:07.202Z,96891.47
2022-07-26T06:27:34.706Z,96886.34
2022-07-26T06:30:02.128Z,96882.59
2022-07-26T06:32:31.565Z,96877.91
2022-07-26T06:34:58.947Z,96886.06
2022-07-26T06:37:26.453Z,96886.88
2022-07-26T06:39:54.037Z,96876.38
2022-07-26T06:42:21.359Z,96869.28
2022-07-26T06:44:48.816Z,96872.84
2022-07-26T06:47:16.303Z,96870.44
2022-07-26T06:49:45.069Z,96860.13
2022-07-26T06:52:12.585Z,96861.22
2022-07-26T06:54:40.050Z,96861.22
2022-07-26T06:57:07.565Z,96863.06
2022-07-26T06:59:35.167Z,96863.97
2022-07-26T07:02:02.917Z,96856.81
2022-07-26T07:04:32.066Z,96870.84
2022-07-26T07:07:05.092Z,96859.75
2022-07-26T07:09:33.941Z,96855.84
2022-07-26T07:12:10.468Z,96838.44
2022-07-26T07:14:39.414Z,96845.97
2022-07-26T07:17:10.454Z,96843.09
2022-07-26T07:19:40.590Z,96842.34
2022-07-26T07:22:12.488Z,96835.50
2022-07-26T07:24:41.511Z,96840.94
2022-07-26T07:27:10.530Z,96839.94
2022-07-26T07:29:38.788Z,96822.09
2022-07-26T07:32:09.196Z,96813.00
2022-07-26T07:34:47.657Z,96810.75
2022-07-26T07:37:16.492Z,96823.50
2022-07-26T07:39:44.028Z,96813.53
2022-07-26T07:42:16.351Z,96818.41
2022-07-26T07:44:44.103Z,96826.91
2022-07-26T07:47:11.731Z,96835.38
2022-07-26T07:49:39.204Z,96822.75
2022-07-26T07:52:06.861Z,96823.56
2022-07-26T07:54:34.296Z,96836.63
2022-07-26T07:57:01.709Z,96844.28
2022-07-26T07:59:29.393Z,96859.13
2022-07-26T08:01:56.823Z,96846.81
2022-07-26T08:04:24.361Z,96845.59
2022-07-26T08:06:52.019Z,96849.88
2022-07-26T08:09:21.005Z,96859.13
2022-07-26T08:11:50.779Z,96855.34
2022-07-26T08:14:19.997Z,96868.84
2022-07-26T08:16:47.597Z,96864.72
2022-07-26T08:19:15.914Z,96858.59
2022-07-26T08:21:46.852Z,96851.56
2022-07-26T08:24:14.736Z,96858.56
2022-07-26T08:26:42.173Z,96853.78
2022-07-26T08:29:09.695Z,96858.28
2022-07-26T08:31:37.485Z,96872.84
2022-07-26T08:34:05.171Z,96878.47
2022-07-26T08:36:33.233Z,96883.59
2022-07-26T08:39:01.935Z,96901.16
2022-07-26T08:41:30.924Z,96901.09
2022-07-26T08:44:08.902Z,96936.34
2022-07-26T08:46:38.681Z,96951.69
2022-07-26T08:49:12.371Z,96955.88
2022-07-26T08:51:44.054Z,96951.97
2022-07-26T08:54:14.413Z,96959.75
2022-07-26T08:56:49.983Z,96964.31
2022-07-26T08:59:21.809Z,96963.72
2022-07-26T09:01:58.521Z,96969.75
2022-07-26T09:04:43.998Z,96966.84
2022-07-26T09:07:16.092Z,96962.50
2022-07-26T09:09:55.701Z,96955.75
2022-07-26T09:12:25.537Z,96960.31
2022-07-26T09:14:53.867Z,96955.00
2022-07-26T09:17:23.870Z,96949.78
2022-07-26T09:20:13.271Z,96945.84
2022-07-26T09:23:00.369Z,96962.19
2022-07-26T09:25:31.187Z,96970.25
2022-07-26T09:28:00.235Z,96972.03
2022-07-26T09:30:30.771Z,96977.56
2022-07-26T09:33:04.947Z,96972.91
2022-07-26T09:35:52.297Z,96967.47
2022-07-26T09:38:20.206Z,96951.41
2022-07-26T09:40:50.860Z,96948.97
2022-07-26T09:43:23.900Z,96947.38
2022-07-26T09:46:07.527Z,96952.19
2022-07-26T09:49:09.768Z,96943.47
2022-07-26T09:51:43.176Z,96947.03
2022-07-26T09:54:12.662Z,96940.81
2022-07-26T09:56:52.869Z,96932.59
2022-07-26T09:59:22.450Z,96932.09
2022-07-26T10:01:52.854Z,96927.94
2022-07-26T10:04:20.960Z,96922.19
2022-07-26T10:06:49.372Z,96927.53
2022-07-26T10:09:18.871Z,96920.38
2022-07-26T10:12:09.292Z,96923.94
2022-07-26T10:14:37.691Z,96916.34
2022-07-26T10:17:31.374Z,96920.00
2022-07-26T10:20:04.561Z,96911.16
2022-07-26T10:22:48.514Z,96920.81
2022-07-26T10:25:19.126Z,96924.78
2022-07-26T10:27:55.100Z,96925.56
2022-07-26T10:30:33.573Z,96936.59
2022-07-26T10:33:11.189Z,96934.16
2022-07-26T10:35:41.323Z,96938.16
2022-07-26T10:38:29.994Z,96938.03
2022-07-26T10:41:00.389Z,96931.13
2022-07-26T10:43:44.747Z,96934.09
2022-07-26T10:46:19.012Z,96937.38
2022-07-26T10:49:05.431Z,96936.41
2022-07-26T10:51:35.689Z,96926.06
2022-07-26T10:54:05.809Z,96928.72
2022-07-26T10:56:34.130Z,96930.66
2022-07-26T10:59:02.485Z,96926.84
2022-07-26T11:01:48.188Z,96937.84
2022-07-26T11:04:23.159Z,96939.88
2022-07-26T11:06:51.204Z,96930.16
2022-07-26T11:09:20.823Z,96930.09
2022-07-26T11:11:49.231Z,96930.41
2022-07-26T11:14:18.405Z,96932.22
2022-07-26T11:16:48.518Z,96935.13
2022-07-26T11:19:18.931Z,96931.28
2022-07-26T11:21:53.440Z,96937.09
2022-07-26T11:24:22.331Z,96919.00
2022-07-26T11:26:50.709Z,96923.81
2022-07-26T11:29:37.892Z,96923.13
2022-07-26T11:32:25.671Z,96925.06
2022-07-26T11:35:04.686Z,96917.00
2022-07-26T11:37:32.646Z,96917.66
2022-07-26T11:40:00.078Z,96909.91
2022-07-26T11:42:27.634Z,96919.00
2022-07-26T11:44:55.182Z,96908.97
2022-07-26T11:47:25.883Z,96919.34
2022-07-26T11:50:14.357Z,96918.91
2022-07-26T11:52:42.683Z,96924.03
2022-07-26T11:55:10.584Z,96916.91
2022-07-26T11:57:38.490Z,96913.94
2022-07-26T12:00:07.092Z,96912.91
2022-07-26T12:02:40.867Z,96915.72
2022-07-26T12:05:23.037Z,96930.19
2022-07-26T12:07:56.385Z,96930.78
2022-07-26T12:10:24.505Z,96922.88
2022-07-26T12:13:14.285Z,96920.75
2022-07-26T12:15:50.839Z,96930.97
2022-07-26T12:18:23.864Z,96945.88
2022-07-26T12:21:11.546Z,96948.31
2022-07-26T12:23:43.238Z,96962.28
2022-07-26T12:26:28.560Z,96971.38
2022-07-26T12:28:57.054Z,96972.75
2022-07-26T12:31:32.973Z,96975.69
2022-07-26T12:34:01.405Z,96965.84
2022-07-26T12:36:30.354Z,96965.09
2022-07-26T12:38:59.699Z,96966.84
2022-07-26T12:41:37.344Z,96968.81
2022-07-26T12:44:12.725Z,96981.50
2022-07-26T12:46:40.717Z,96968.66
2022-07-26T12:49:08.280Z,96959.13
2022-07-26T12:51:35.830Z,96972.00
2022-07-26T12:54:06.715Z,96978.38
2022-07-26T12:56:34.519Z,96971.84
2022-07-26T12:59:02.161Z,96966.84
2022-07-26T13:01:31.655Z,96983.31
2022-07-26T13:03:59.230Z,96980.03
2022-07-26T13:06:26.807Z,96974.00
2022-07-26T13:08:54.386Z,96959.41
2022-07-26T13:11:21.949Z,96960.41
2022-07-26T13:13:49.855Z,96965.00
2022-07-26T13:16:17.382Z,96972.34
2022-07-26T13:18:44.910Z,96976.66
2022-07-26T13:21:12.506Z,96993.56
2022-07-26T13:23:40.029Z,96997.59
2022-07-26T13:26:09.294Z,96991.03
2022-07-26T13:28:40.165Z,97004.19
2022-07-26T13:31:07.699Z,97005.19
2022-07-26T13:33:39.552Z,97014.28
2022-07-26T13:36:07.431Z,97019.56
2022-07-26T13:38:35.588Z,97016.31
2022-07-26T13:41:03.559Z,97018.09
2022-07-26T13:43:35.550Z,97008.00
2022-07-26T13:46:03.223Z,97007.00
2022-07-26T13:48:31.530Z,97004.44
2022-07-26T13:50:59.038Z,96996.09
2022-07-26T13:53:26.787Z,96994.88
2022-07-26T13:55:54.254Z,97002.47
2022-07-26T13:58:21.938Z,96994.41
2022-07-26T14:00:49.618Z,96997.69
2022-07-26T14:03:17.568Z,96996.94
2022-07-26T14:05:46.483Z,96986.81
2022-07-26T14:08:13.996Z,96993.41
2022-07-26T14:10:42.423Z,96990.41
2022-07-26T14:13:10.414Z,96984.03
2022-07-26T14:15:38.261Z,96998.66
2022-07-26T14:18:05.991Z,96987.84
2022-07-26T14:20:33.611Z,96994.91
2022-07-26T14:23:01.147Z,96986.81
2022-07-26T14:25:28.991Z,96995.66
2022-07-26T14:27:56.542Z,96993.88
2022-07-26T14:30:24.219Z,96994.91
2022-07-26T14:32:51.875Z,97009.25
2022-07-26T14:35:19.389Z,97002.94
2022-07-26T14:37:46.922Z,97003.94
2022-07-26T14:40:16.840Z,97016.06
2022-07-26T14:42:45.540Z,97009.22
2022-07-26T14:45:14.045Z,97000.81
2022-07-26T14:47:41.969Z,96996.00
2022-07-26T14:50:14.398Z,97007.34
2022-07-26T14:52:45.089Z,97010.09
2022-07-26T14:55:13.587Z,97006.50
2022-07-26T14:57:42.221Z,97007.25
2022-07-26T15:00:12.843Z,97012.50
2022-07-26T15:02:42.316Z,97017.06
2022-07-26T15:05:11.396Z,97019.31
2022-07-26T15:07:40.034Z,97028.63
2022-07-26T15:10:10.162Z,97041.22
2022-07-26T15:12:38.912Z,97038.94
2022-07-26T15:15:07.776Z,97043.22
2022-07-26T15:17:35.813Z,97039.41
2022-07-26T15:20:04.805Z,97050.72
2022-07-26T15:22:32.400Z,97038.88
2022-07-26T15:24:59.978Z,97043.06
2022-07-26T15:27:27.642Z,97048.84
2022-07-26T15:29:59.517Z,97048.09
2022-07-26T15:32:31.585Z,97057.91
2022-07-26T15:34:59.480Z,97058.19
2022-07-26T15:37:27.097Z,97062.66
2022-07-26T15:39:54.726Z,97060.84
2022-07-26T15:42:23.235Z,97071.66
2022-07-26T15:44:51.123Z,97059.78
2022-07-26T15:47:36.947Z,97057.72
2022-07-26T15:50:09.159Z,97074.81
2022-07-26T15:52:38.689Z,97077.09
2022-07-26T15:55:07.880Z,97084.81
2022-07-26T15:57:35.760Z,97091.28
2022-07-26T16:00:11.174Z,97092.31
2022-07-26T16:02:40.429Z,97095.84
2022-07-26T16:05:09.962Z,97096.84
2022-07-26T16:07:39.543Z,97084.31
2022-07-26T16:10:08.173Z,97089.72
2022-07-26T16:12:35.673Z,97070.66
2022-07-26T16:15:03.285Z,97088.78
2022-07-26T16:17:31.307Z,97098.41
2022-07-26T16:19:58.974Z,97098.47
2022-07-26T16:22:26.483Z,97101.03
2022-07-26T16:24:54.364Z,97114.31
2022-07-26T16:27:21.821Z,97113.63
2022-07-26T16:29:52.303Z,97111.56
2022-07-26T16:32:21.526Z,97127.47
2022-07-26T16:34:49.248Z,97114.69
2022-07-26T16:37:16.823Z,97129.94
2022-07-26T16:39:44.476Z,97130.50
2022-07-26T16:42:12.101Z,97131.34
2022-07-26T16:44:39.670Z,97133.84
2022-07-26T16:47:08.875Z,97147.31
2022-07-26T16:49:36.593Z,97152.78
2022-07-26T16:52:06.933Z,97165.56
2022-07-26T16:54:34.666Z,97151.13
2022-07-26T16:57:04.783Z,97154.56
2022-07-26T16:59:32.524Z,97153.63
2022-07-26T17:02:01.697Z,97171.88
2022-07-26T17:04:31.117Z,97175.84
2022-07-26T17:07:23.186Z,97170.81
2022-07-26T17:09:46.246Z,97170.72
2022-07-26T17:12:13.718Z,97162.63
2022-07-26T17:14:41.166Z,97164.16
2022-07-26T17:17:08.644Z,97160.44
2022-07-26T17:19:36.258Z,97164.94
2022-07-26T17:22:04.165Z,97169.19
2022-07-26T17:24:31.711Z,97167.38
2022-07-26T17:26:59.299Z,97162.81
2022-07-26T17:29:27.165Z,97184.13
2022-07-26T17:31:55.279Z,97171.75
2022-07-26T17:34:22.745Z,97172.34
2022-07-26T17:37:00.629Z,97191.84
2022-07-26T17:39:51.854Z,97183.34
2022-07-26T17:42:17.166Z,97166.31
2022-07-26T17:44:44.742Z,97170.00
2022-07-26T17:47:18.005Z,97180.81
2022-07-26T17:49:57.100Z,97169.97
2022-07-26T17:52:26.819Z,97180.53
2022-07-26T17:54:55.941Z,97176.06
2022-07-26T17:57:23.607Z,97184.47
2022-07-26T17:59:51.138Z,97174.44
2022-07-26T18:02:18.583Z,97183.22
2022-07-26T18:04:46.253Z,97185.44
2022-07-26T18:07:13.888Z,97183.28
2022-07-26T18:09:41.481Z,97184.00
2022-07-26T18:12:08.944Z,97188.91
2022-07-26T18:14:36.393Z,97183.22
2022-07-26T18:17:04.220Z,97180.56
2022-07-26T18:19:33.251Z,97175.53
2022-07-26T18:22:05.493Z,97177.50
2022-07-26T18:24:33.618Z,97149.56
2022-07-26T18:27:01.163Z,97171.09
2022-07-26T18:29:28.631Z,97167.72
2022-07-26T18:31:58.761Z,97154.88
2022-07-26T18:34:27.237Z,97155.41
2022-07-26T18:36:54.876Z,97148.03
2022-07-26T18:39:22.359Z,97158.28
2022-07-26T18:41:49.925Z,97160.44
2022-07-26T18:44:17.424Z,97144.31
2022-07-26T18:46:44.958Z,97151.88
2022-07-26T18:49:15.856Z,97152.78
2022-07-26T18:51:48.853Z,97150.78
2022-07-26T18:54:19.100Z,97148.91
2022-07-26T18:56:46.517Z,97139.03
2022-07-26T18:59:14.361Z,97141.31
2022-07-26T19:01:42.177Z,97150.50
2022-07-26T19:04:11.249Z,97160.91
2022-07-26T19:06:40.132Z,97145.22
2022-07-26T19:09:07.731Z,97154.72
2022-07-26T19:11:37.752Z,97157.13
2022-07-26T19:14:05.716Z,97153.16
2022-07-26T19:16:33.304Z,97154.22
2022-07-26T19:19:00.955Z,97146.41
2022-07-26T19:21:28.427Z,97149.53
2022-07-26T19:23:56.194Z,97159.00
2022-07-26T19:26:24.111Z,97159.97
2022-07-26T19:28:51.644Z,97156.09
2022-07-26T19:31:19.287Z,97161.41
2022-07-26T19:33:46.731Z,97153.44
2022-07-26T19:36:17.358Z,97151.44
2022-07-26T19:38:53.202Z,97159.38
2022-07-26T19:41:20.778Z,97145.50
2022-07-26T19:43:48.230Z,97148.44
2022-07-26T19:46:15.799Z,97149.78
2022-07-26T19:48:43.384Z,97148.38
2022-07-26T19:51:10.920Z,97153.28
2022-07-26T19:53:38.471Z,97149.59
2022-07-26T19:56:06.524Z,97151.91
2022-07-26T19:58:34.015Z,97149.94
2022-07-26T20:01:01.615Z,97163.25
2022-07-26T20:03:29.237Z,97151.59
2022-07-26T20:05:58.002Z,97154.66
2022-07-26T20:08:25.742Z,97152.66
2022-07-26T20:10:53.234Z,97154.22
2022-07-26T20:13:20.675Z,97153.75
2022-07-26T20:15:48.243Z,97153.13
2022-07-26T20:18:18.521Z,97150.88
2022-07-26T20:20:46.060Z,97149.00
2022-07-26T20:23:13.443Z,97158.50
2022-07-26T20:25:40.866Z,97153.47
2022-07-26T20:28:08.272Z,97157.13
2022-07-26T20:30:35.863Z,97156.66
2022-07-26T20:33:03.359Z,97154.63
2022-07-26T20:35:31.626Z,97158.28
2022-07-26T20:37:59.073Z,97148.78
2022-07-26T20:40:28.910Z,97153.19
2022-07-26T20:42:56.463Z,97153.19
2022-07-26T20:45:24.258Z,97160.06
2022-07-26T20:47:55.393Z,97156.56
2022-07-26T20:50:23.358Z,97156.41
2022-07-26T20:52:51.716Z,97154.41
2022-07-26T20:55:19.383Z,97158.16
2022-07-26T20:57:47.942Z,97160.75
2022-07-26T21:00:16.571Z,97158.59
2022-07-26T21:02:44.455Z,97154.16
2022-07-26T21:05:13.120Z,97147.13
2022-07-26T21:07:56.580Z,97157.38
2022-07-26T21:10:28.262Z,97142.38
2022-07-26T21:12:57.586Z,97156.34
2022-07-26T21:15:25.022Z,97150.66
2022-07-26T21:17:53.316Z,97153.34
2022-07-26T21:20:20.982Z,97152.88
2022-07-26T21:22:48.454Z,97147.44
2022-07-26T21:25:16.003Z,97149.38
2022-07-26T21:27:44.101Z,97155.81
2022-07-26T21:30:11.986Z,97164.03
2022-07-26T21:32:39.499Z,97153.81
2022-07-26T21:35:07.253Z,97152.56
2022-07-26T21:37:34.779Z,97158.44
2022-07-26T21:40:02.209Z,97160.25
2022-07-26T21:42:30.841Z,97162.69
2022-07-26T21:44:58.230Z,97160.72
2022-07-26T21:47:25.868Z,97168.66
2022-07-26T21:49:53.253Z,97170.31
2022-07-26T21:52:20.618Z,97182.84
2022-07-26T21:54:48.072Z,97171.97
2022-07-26T21:57:15.478Z,97170.91
2022-07-26T21:59:42.849Z,97170.94
2022-07-26T22:02:10.380Z,97179.63
2022-07-26T22:04:37.898Z,97181.34
2022-07-26T22:07:05.698Z,97177.06
2022-07-26T22:09:34.531Z,97174.91
2022-07-26T22:12:01.993Z,97176.25
2022-07-26T22:14:29.456Z,97189.13
2022-07-26T22:19:24.141Z,97191.75
2022-07-26T22:21:51.746Z,97198.28
2022-07-26T22:24:19.258Z,97194.31
2022-07-26T22:26:46.702Z,97196.59
2022-07-26T22:29:14.363Z,97204.75
2022-07-26T22:31:42.264Z,97208.09
2022-07-26T22:34:09.745Z,97211.00
2022-07-26T22:36:39.983Z,97209.16
2022-07-26T22:39:13.094Z,97216.34
2022-07-26T22:42:05.002Z,97215.25
2022-07-26T22:44:28.751Z,97203.91
2022-07-26T22:46:56.202Z,97204.25
2022-07-26T22:49:23.641Z,97213.44
2022-07-26T22:51:51.131Z,97210.97
2022-07-26T22:54:18.494Z,97209.75
2022-07-26T22:56:46.836Z,97211.44
2022-07-26T22:59:14.825Z,97197.84
2022-07-26T23:01:42.566Z,97201.34
2022-07-26T23:04:10.157Z,97201.19
2022-07-26T23:06:38.180Z,97211.31
2022-07-26T23:09:05.730Z,97211.44
2022-07-26T23:11:33.212Z,97220.94
2022-07-26T23:14:01.020Z,97225.25
2022-07-26T23:16:28.810Z,97218.34
2022-07-26T23:18:56.393Z,97222.50
2022-07-26T23:21:23.875Z,97221.28
2022-07-26T23:23:51.287Z,97219.88
2022-07-26T23:26:18.822Z,97228.91
2022-07-26T23:28:46.312Z,97218.66
2022-07-26T23:31:14.592Z,97233.19
2022-07-26T23:33:52.203Z,97237.94
2022-07-26T23:36:26.620Z,97233.94
2022-07-26T23:38:58.871Z,97241.72
2022-07-26T23:41:27.449Z,97254.59
2022-07-26T23:43:55.511Z,97247.56
2022-07-26T23:46:24.001Z,97251.06
2022-07-26T23:48:52.333Z,97251.53
2022-07-26T23:51:20.444Z,97248.78
2022-07-26T23:53:48.196Z,97244.22
2022-07-26T23:56:16.201Z,97250.78
2022-07-26T23:58:44.152Z,97255.63
